createdAt,value
2022-09-21T00:02:43.906Z,10.60
2022-09-21T00:07:27.621Z,10.60
2022-09-21T00:12:11.017Z,10.60
2022-09-21T00:16:55.908Z,10.50
2022-09-21T00:21:40.050Z,10.50
2022-09-21T00:26:27.407Z,10.40
2022-09-21T00:31:14.511Z,10.30
2022-09-21T00:36:04.726Z,10.20
2022-09-21T00:40:48.142Z,10.20
2022-09-21T00:45:31.776Z,10.30
2022-09-21T00:50:18.597Z,10.20
2022-09-21T00:55:10.665Z,10.10
2022-09-21T00:59:57.387Z,10.10
2022-09-21T01:04:41.035Z,9.90
2022-09-21T01:09:24.523Z,10.00
2022-09-21T01:14:22.396Z,10.10
2022-09-21T01:19:22.040Z,10.00
2022-09-21T01:24:31.076Z,9.80
2022-09-21T01:29:21.377Z,9.90
2022-09-21T01:34:12.040Z,9.60
2022-09-21T01:39:00.443Z,9.30
2022-09-21T01:43:47.805Z,9.00
2022-09-21T01:48:36.046Z,8.70
2022-09-21T01:53:25.167Z,8.60
2022-09-21T01:58:14.902Z,8.40
2022-09-21T02:03:05.428Z,8.20
2022-09-21T02:07:51.651Z,8.10
2022-09-21T02:12:35.125Z,7.90
2022-09-21T02:17:32.501Z,7.80
2022-09-21T02:22:25.167Z,7.60
2022-09-21T02:27:20.708Z,7.50
2022-09-21T02:32:10.627Z,7.30
2022-09-21T02:36:57.271Z,7.40
2022-09-21T02:41:48.002Z,7.30
2022-09-21T02:46:43.694Z,7.20
2022-09-21T02:51:32.411Z,7.00
2022-09-21T02:56:17.130Z,6.80
2022-09-21T03:01:01.477Z,6.60
2022-09-21T03:05:48.708Z,6.80
2022-09-21T03:10:32.099Z,6.80
2022-09-21T03:15:18.383Z,7.00
2022-09-21T03:20:02.599Z,7.00
2022-09-21T03:24:47.395Z,6.90
2022-09-21T03:29:30.759Z,6.80
2022-09-21T03:34:14.146Z,6.50
2022-09-21T03:38:57.668Z,6.30
2022-09-21T03:43:42.499Z,6.20
2022-09-21T03:48:26.050Z,6.30
2022-09-21T03:53:10.300Z,6.20
2022-09-21T03:57:53.746Z,6.00
2022-09-21T04:02:40.475Z,5.90
2022-09-21T04:07:23.910Z,5.90
2022-09-21T04:12:07.463Z,5.80
2022-09-21T04:16:51.076Z,5.90
2022-09-21T04:21:36.095Z,5.80
2022-09-21T04:26:24.781Z,6.00
2022-09-21T04:31:08.216Z,6.00
2022-09-21T04:35:56.256Z,5.90
2022-09-21T04:40:41.098Z,6.00
2022-09-21T04:45:25.005Z,6.00
2022-09-21T04:50:09.801Z,5.80
2022-09-21T04:54:53.312Z,5.60
2022-09-21T04:59:38.270Z,5.50
2022-09-21T05:04:21.680Z,5.50
2022-09-21T05:09:23.002Z,5.40
2022-09-21T05:14:06.399Z,5.30
2022-09-21T05:18:55.190Z,5.10
2022-09-21T05:23:38.581Z,5.10
2022-09-21T05:28:22.484Z,4.90
2022-09-21T05:33:07.490Z,4.90
2022-09-21T05:37:57.449Z,5.10
2022-09-21T05:42:41.361Z,5.40
2022-09-21T05:47:29.748Z,5.60
2022-09-21T05:52:24.294Z,5.70
2022-09-21T05:57:15.069Z,5.60
2022-09-21T06:02:07.082Z,5.50
2022-09-21T06:06:50.576Z,5.60
2022-09-21T06:11:34.072Z,5.60
2022-09-21T06:16:18.865Z,5.60
2022-09-21T06:21:02.252Z,5.60
2022-09-21T06:25:45.591Z,5.60
2022-09-21T06:30:29.000Z,5.60
2022-09-21T06:35:13.907Z,5.60
2022-09-21T06:39:57.454Z,5.70
2022-09-21T06:44:40.953Z,5.90
2022-09-21T06:49:24.355Z,6.90
2022-09-21T06:54:09.327Z,7.80
2022-09-21T06:58:52.880Z,8.70
2022-09-21T07:03:36.802Z,9.30
2022-09-21T07:13:25.360Z,10.50
2022-09-21T07:18:13.940Z,10.90
2022-09-21T07:22:57.857Z,11.50
2022-09-21T07:27:41.503Z,11.90
2022-09-21T07:32:27.509Z,12.20
2022-09-21T07:37:10.894Z,12.30
2022-09-21T07:41:54.300Z,12.70
2022-09-21T07:46:41.230Z,13.10
2022-09-21T07:51:29.056Z,13.40
2022-09-21T07:56:14.631Z,13.70
2022-09-21T08:00:58.110Z,14.20
2022-09-21T08:05:41.573Z,14.60
2022-09-21T08:10:28.928Z,14.90
2022-09-21T08:15:30.652Z,15.50
2022-09-21T08:20:16.455Z,15.90
2022-09-21T08:24:59.862Z,15.80
2022-09-21T08:29:44.718Z,15.80
2022-09-21T08:34:28.181Z,16.10
2022-09-21T08:39:11.573Z,16.70
2022-09-21T08:44:00.059Z,16.80
2022-09-21T08:48:48.789Z,17.30
2022-09-21T08:53:35.058Z,18.00
2022-09-21T08:58:24.555Z,18.30
2022-09-21T09:03:35.573Z,18.50
2022-09-21T09:08:43.373Z,19.20
2022-09-21T09:13:48.845Z,19.80
2022-09-21T09:18:43.413Z,20.10
2022-09-21T09:23:34.067Z,20.00
2022-09-21T09:28:29.733Z,21.30
2022-09-21T09:33:22.170Z,21.70
2022-09-21T09:38:13.320Z,21.60
2022-09-21T09:43:06.206Z,22.10
2022-09-21T09:48:02.677Z,22.70
2022-09-21T09:52:46.963Z,23.20
2022-09-21T09:57:32.551Z,23.10
2022-09-21T10:02:23.777Z,23.30
2022-09-21T10:07:07.290Z,22.90
2022-09-21T10:11:50.961Z,21.20
2022-09-21T10:16:34.687Z,21.50
2022-09-21T10:21:22.634Z,21.40
2022-09-21T10:26:10.402Z,23.00
2022-09-21T10:31:10.964Z,24.50
2022-09-21T10:35:54.954Z,24.30
2022-09-21T10:40:41.828Z,23.40
2022-09-21T10:45:27.925Z,25.10
2022-09-21T10:50:25.553Z,26.10
2022-09-21T10:55:17.472Z,25.40
2022-09-21T11:00:29.505Z,25.80
2022-09-21T11:05:18.663Z,26.40
2022-09-21T11:10:11.439Z,26.80
2022-09-21T11:15:00.547Z,27.30
2022-09-21T11:19:51.337Z,26.90
2022-09-21T11:24:42.889Z,27.60
2022-09-21T11:29:30.684Z,28.60
2022-09-21T11:34:44.603Z,28.80
2022-09-21T11:39:41.460Z,28.60
2022-09-21T11:44:48.392Z,28.70
2022-09-21T11:50:07.656Z,29.70
2022-09-21T11:55:38.651Z,28.30
2022-09-21T12:00:23.557Z,27.30
2022-09-21T12:05:17.901Z,28.70
2022-09-21T12:10:26.829Z,28.80
2022-09-21T12:15:21.806Z,29.30
2022-09-21T12:20:12.212Z,29.10
2022-09-21T12:25:00.382Z,29.50
2022-09-21T12:29:47.947Z,28.10
2022-09-21T12:34:42.146Z,29.10
2022-09-21T12:39:30.325Z,28.50
2022-09-21T12:44:21.518Z,29.90
2022-09-21T12:49:14.353Z,28.00
2022-09-21T12:54:02.373Z,28.80
2022-09-21T12:58:58.359Z,27.90
2022-09-21T13:03:52.755Z,27.20
2022-09-21T13:08:39.350Z,28.80
2022-09-21T13:13:30.435Z,27.80
2022-09-21T13:18:24.986Z,27.80
2022-09-21T13:23:17.221Z,27.70
2022-09-21T13:28:09.395Z,26.90
2022-09-21T13:32:54.937Z,28.00
2022-09-21T13:37:38.351Z,28.40
2022-09-21T13:42:46.699Z,27.50
2022-09-21T13:47:32.246Z,27.50
2022-09-21T13:52:35.235Z,28.10
2022-09-21T13:57:22.393Z,29.20
2022-09-21T14:02:22.695Z,28.60
2022-09-21T14:07:09.007Z,29.10
2022-09-21T14:12:00.358Z,29.10
2022-09-21T14:17:05.593Z,29.00
2022-09-21T14:22:38.372Z,28.70
2022-09-21T14:27:29.408Z,28.40
2022-09-21T14:32:18.980Z,29.40
2022-09-21T14:37:06.141Z,29.50
2022-09-21T14:41:51.658Z,28.70
2022-09-21T14:47:04.387Z,28.10
2022-09-21T14:52:03.901Z,27.30
2022-09-21T14:57:12.080Z,27.70
2022-09-21T15:02:03.676Z,29.40
2022-09-21T15:07:11.923Z,28.50
2022-09-21T15:12:03.108Z,30.90
2022-09-21T15:16:48.993Z,29.60
2022-09-21T15:21:34.793Z,28.90
2022-09-21T15:26:24.292Z,29.50
2022-09-21T15:31:08.506Z,30.20
2022-09-21T15:35:54.751Z,30.40
2022-09-21T15:40:48.828Z,30.20
2022-09-21T15:45:37.445Z,29.50
2022-09-21T15:50:21.687Z,30.10
2022-09-21T15:55:12.263Z,30.60
2022-09-21T15:59:57.444Z,30.00
2022-09-21T16:04:50.404Z,30.20
2022-09-21T16:09:41.094Z,29.10
2022-09-21T16:14:42.775Z,28.80
2022-09-21T16:19:42.240Z,28.00
2022-09-21T16:24:31.604Z,26.50
2022-09-21T16:29:21.540Z,25.70
2022-09-21T16:34:23.121Z,24.30
2022-09-21T16:39:15.275Z,23.00
2022-09-21T16:44:00.649Z,19.80
2022-09-21T16:48:44.521Z,18.70
2022-09-21T16:53:27.969Z,18.00
2022-09-21T16:58:12.849Z,17.50
2022-09-21T17:02:56.255Z,17.00
2022-09-21T17:07:39.820Z,16.70
2022-09-21T17:12:24.104Z,16.50
2022-09-21T17:17:14.105Z,16.10
2022-09-21T17:21:57.619Z,15.80
2022-09-21T17:26:41.623Z,15.50
2022-09-21T17:31:26.042Z,15.10
2022-09-21T17:36:14.430Z,14.80
2022-09-21T17:40:57.967Z,14.30
2022-09-21T17:45:47.076Z,14.00
2022-09-21T17:50:31.803Z,13.90
2022-09-21T17:55:17.495Z,13.60
2022-09-21T18:00:12.476Z,13.40
2022-09-21T18:05:03.259Z,13.30
2022-09-21T18:09:47.344Z,13.10
2022-09-21T18:14:41.218Z,13.30
2022-09-21T18:19:35.441Z,13.10
2022-09-21T18:24:25.414Z,12.90
2022-09-21T18:29:38.798Z,12.70
2022-09-21T18:34:44.882Z,12.60
2022-09-21T18:39:39.084Z,12.40
2022-09-21T18:44:27.990Z,12.30
2022-09-21T18:49:18.047Z,12.20
2022-09-21T18:54:03.155Z,12.00
2022-09-21T18:58:47.174Z,11.90
2022-09-21T19:03:31.502Z,11.80
2022-09-21T19:08:24.136Z,11.60
2022-09-21T19:13:34.487Z,11.40
2022-09-21T19:18:40.926Z,11.50
2022-09-21T19:23:36.505Z,11.40
2022-09-21T19:28:47.003Z,11.20
2022-09-21T19:33:49.461Z,11.10
2022-09-21T19:38:34.519Z,10.90
2022-09-21T19:43:24.765Z,10.60
2022-09-21T19:48:15.215Z,10.60
2022-09-21T19:53:19.488Z,10.60
2022-09-21T19:58:20.906Z,10.50
2022-09-21T20:03:07.652Z,10.30
2022-09-21T20:07:59.363Z,10.10
2022-09-21T20:12:49.525Z,9.90
2022-09-21T20:17:39.593Z,9.80
2022-09-21T20:22:33.924Z,9.80
2022-09-21T20:27:28.596Z,10.00
2022-09-21T20:32:12.132Z,9.80
2022-09-21T20:36:55.936Z,9.70
2022-09-21T20:41:40.357Z,9.60
2022-09-21T20:46:25.248Z,9.50
2022-09-21T20:51:09.637Z,9.20
2022-09-21T20:55:57.311Z,9.20
2022-09-21T21:00:40.983Z,9.10
2022-09-21T21:05:26.362Z,8.90
2022-09-21T21:10:12.074Z,9.10
2022-09-21T21:14:56.464Z,9.20
2022-09-21T21:19:40.456Z,9.00
2022-09-21T21:24:44.378Z,8.80
2022-09-21T21:29:28.447Z,8.70
2022-09-21T21:34:12.499Z,8.60
2022-09-21T21:38:56.774Z,8.50
2022-09-21T21:43:43.086Z,8.40
2022-09-21T21:48:26.621Z,8.30
2022-09-21T21:53:10.057Z,8.30
2022-09-21T21:57:53.451Z,8.30
2022-09-21T22:02:38.410Z,8.40
2022-09-21T22:07:22.056Z,8.30
2022-09-21T22:12:05.881Z,8.20
2022-09-21T22:16:49.514Z,8.10
2022-09-21T22:21:36.438Z,7.90
2022-09-21T22:26:20.104Z,7.90
2022-09-21T22:31:04.646Z,7.80
2022-09-21T22:35:48.131Z,7.60
2022-09-21T22:40:33.044Z,7.60
2022-09-21T22:45:16.714Z,7.60
2022-09-21T22:50:00.187Z,7.50
2022-09-21T22:54:43.757Z,7.40
2022-09-21T22:59:28.662Z,7.40
2022-09-21T23:04:13.954Z,7.30
2022-09-21T23:08:59.252Z,7.20
2022-09-21T23:13:43.338Z,7.20
2022-09-21T23:18:28.210Z,7.10
2022-09-21T23:23:11.646Z,7.10
2022-09-21T23:27:55.105Z,7.10
2022-09-21T23:32:38.442Z,7.00
2022-09-21T23:37:23.171Z,6.90
2022-09-21T23:42:06.792Z,7.00
2022-09-21T23:46:50.328Z,6.90
2022-09-21T23:51:34.074Z,7.00
2022-09-21T23:56:20.605Z,6.90
